Time;durP1;ratioP1;P1;durP2;ratioP2;P2;SDS_P1;SDS_P2;PMS_P1;PMS_P2;Temp;Humidity;BMP_temperature;BMP_pressure;BME280_temperature;BME280_humidity;BME280_pressure;Samples;Min_cycle;Max_cycle;Signal;HPM_P1;HPM_P2
2021/12/21 00:00:11;;;;;;;7.05;4.35;;;2.40;99.90;;;;;;5147387;27;20080;-67
2021/12/21 00:02:36;;;;;;;14.30;5.45;;;2.40;99.90;;;;;;5129903;27;20114;-67
2021/12/21 00:05:02;;;;;;;10.43;4.40;;;2.40;99.90;;;;;;5123765;27;20047;-67
2021/12/21 00:07:28;;;;;;;11.82;4.72;;;2.30;99.90;;;;;;5128861;27;20051;-67
2021/12/21 00:09:53;;;;;;;7.63;3.65;;;2.40;99.90;;;;;;5130586;27;20058;-67
2021/12/21 00:12:22;;;;;;;8.40;4.35;;;2.40;99.90;;;;;;5128644;27;20131;-67
2021/12/21 00:14:59;;;;;;;7.30;4.30;;;2.40;99.90;;;;;;5133143;27;20065;-67
2021/12/21 00:17:46;;;;;;;10.68;4.28;;;2.40;99.90;;;;;;5130648;27;20043;-67
2021/12/21 00:25:22;;;;;;;9.10;4.03;;;2.30;99.90;;;;;;5129080;27;20051;-67
2021/12/21 00:27:51;;;;;;;7.53;3.42;;;2.30;99.90;;;;;;5128907;27;20051;-67
2021/12/21 00:30:17;;;;;;;10.35;4.50;;;2.30;99.90;;;;;;5135546;27;20039;-67
2021/12/21 00:32:43;;;;;;;8.95;4.43;;;2.20;99.90;;;;;;5141292;27;20043;-67
2021/12/21 00:35:10;;;;;;;14.05;4.05;;;2.30;99.90;;;;;;5128508;27;20095;-67
2021/12/21 00:37:39;;;;;;;10.20;3.40;;;2.30;99.90;;;;;;5104751;28;20118;-67
2021/12/21 00:40:06;;;;;;;12.18;4.35;;;2.20;99.90;;;;;;5133368;27;20088;-67
2021/12/21 00:42:32;;;;;;;9.65;4.28;;;2.20;99.90;;;;;;5122527;27;20526;-67
2021/12/21 00:44:57;;;;;;;7.22;3.92;;;2.10;99.90;;;;;;5133337;27;20047;-67
2021/12/21 00:47:23;;;;;;;9.60;4.18;;;2.10;99.90;;;;;;5110109;27;20135;-67
2021/12/21 00:49:58;;;;;;;6.22;3.38;;;2.10;99.90;;;;;;5134980;27;20050;-67
2021/12/21 00:52:24;;;;;;;8.45;3.65;;;2.10;99.90;;;;;;5129754;27;20047;-67
2021/12/21 00:54:50;;;;;;;15.75;4.90;;;2.00;99.90;;;;;;5114937;27;20039;-67
2021/12/21 00:57:16;;;;;;;12.57;4.43;;;2.10;99.90;;;;;;5131971;27;20047;-67
2021/12/21 00:59:42;;;;;;;11.02;3.92;;;2.00;99.90;;;;;;5106019;27;20045;-67
2021/12/21 01:02:08;;;;;;;9.93;4.50;;;2.00;99.90;;;;;;5129596;27;20081;-67
2021/12/21 01:04:39;;;;;;;9.25;4.75;;;2.10;99.90;;;;;;5144948;27;20039;-67
2021/12/21 01:12:34;;;;;;;14.65;5.72;;;2.10;99.90;;;;;;5110447;28;20043;-67
2021/12/21 01:17:47;;;;;;;12.23;5.40;;;2.10;99.90;;;;;;5135087;27;20613;-67
2021/12/21 01:20:27;;;;;;;10.45;4.50;;;2.00;99.90;;;;;;5131750;27;20043;-67
2021/12/21 01:23:19;;;;;;;10.68;4.60;;;2.00;99.90;;;;;;5136503;27;20058;-67
2021/12/21 01:25:53;;;;;;;13.98;5.72;;;2.00;99.90;;;;;;5123185;28;20050;-67
2021/12/21 01:28:33;;;;;;;17.35;5.45;;;2.00;99.90;;;;;;5122370;28;20116;-66
2021/12/21 01:33:59;;;;;;;11.27;4.32;;;2.00;99.90;;;;;;5127445;27;20043;-67
2021/12/21 01:36:34;;;;;;;8.23;3.97;;;2.00;99.90;;;;;;5110592;28;20036;-67
2021/12/21 01:39:09;;;;;;;12.55;4.43;;;2.00;99.90;;;;;;5135612;27;20050;-67
2021/12/21 01:49:45;;;;;;;8.60;4.10;;;1.90;99.90;;;;;;5131487;27;20047;-67
2021/12/21 01:52:16;;;;;;;11.77;5.80;;;1.90;99.90;;;;;;5126921;28;20047;-67
2021/12/21 01:54:42;;;;;;;15.95;4.68;;;1.90;99.90;;;;;;5128535;28;20031;-67
2021/12/21 01:57:09;;;;;;;11.73;4.65;;;1.90;99.90;;;;;;5125361;28;20047;-67
2021/12/21 01:59:36;;;;;;;9.85;4.72;;;1.90;99.90;;;;;;5127428;27;20119;-67
2021/12/21 02:02:03;;;;;;;7.53;4.18;;;1.90;99.90;;;;;;5128038;27;20047;-67
2021/12/21 02:04:29;;;;;;;11.75;4.35;;;1.90;99.90;;;;;;5126469;28;20039;-67
2021/12/21 02:06:54;;;;;;;10.52;3.88;;;1.90;99.90;;;;;;5127401;27;20039;-67
2021/12/21 02:09:24;;;;;;;14.98;4.57;;;1.90;99.90;;;;;;5147690;27;20122;-67
2021/12/21 02:11:49;;;;;;;13.20;4.22;;;1.90;99.90;;;;;;5141758;27;20051;-67
2021/12/21 02:14:15;;;;;;;11.30;4.75;;;1.90;99.90;;;;;;5125162;27;20053;-67
2021/12/21 02:16:57;;;;;;;9.98;4.10;;;1.90;99.90;;;;;;5132446;27;20039;-67
2021/12/21 02:19:38;;;;;;;13.50;4.05;;;1.90;99.90;;;;;;5112385;27;20043;-67
2021/12/21 02:22:11;;;;;;;12.52;4.40;;;1.80;99.90;;;;;;5134413;27;20088;-67
2021/12/21 02:24:46;;;;;;;14.07;4.20;;;1.80;99.90;;;;;;5113373;27;20050;-67
2021/12/21 02:27:26;;;;;;;9.57;3.88;;;1.90;99.90;;;;;;5104814;27;20039;-67
2021/12/21 02:29:52;;;;;;;10.93;4.68;;;1.80;99.90;;;;;;5127795;27;20075;-67
2021/12/21 02:32:18;;;;;;;11.90;4.53;;;1.80;99.90;;;;;;5136425;27;20055;-67
2021/12/21 02:34:44;;;;;;;12.90;4.55;;;1.80;99.90;;;;;;5122918;27;20050;-67
2021/12/21 02:37:11;;;;;;;7.40;3.47;;;1.80;99.90;;;;;;5141240;27;20055;-67
2021/12/21 02:39:37;;;;;;;16.52;4.85;;;1.80;99.90;;;;;;5113418;27;20047;-67
2021/12/21 02:42:04;;;;;;;12.38;4.47;;;1.70;99.90;;;;;;5138781;27;20053;-67
2021/12/21 02:44:30;;;;;;;11.77;3.78;;;1.70;99.90;;;;;;5144206;27;20030;-67
2021/12/21 02:46:56;;;;;;;9.55;4.00;;;1.60;99.90;;;;;;5108166;27;20051;-67
2021/12/21 02:49:22;;;;;;;16.02;4.47;;;1.60;99.90;;;;;;5121032;27;20131;-67
2021/12/21 02:51:48;;;;;;;9.38;4.53;;;1.50;99.90;;;;;;5131449;27;20047;-67
2021/12/21 02:54:16;;;;;;;12.77;4.85;;;1.60;99.90;;;;;;5132866;27;20150;-67
2021/12/21 02:56:41;;;;;;;13.40;4.25;;;1.60;99.90;;;;;;5121667;27;20061;-67
2021/12/21 02:59:07;;;;;;;10.65;4.28;;;1.60;99.90;;;;;;5147946;27;20042;-67
2021/12/21 03:01:34;;;;;;;13.57;4.80;;;1.60;99.90;;;;;;5129970;27;20047;-67
2021/12/21 03:03:59;;;;;;;12.98;4.97;;;1.60;99.90;;;;;;5131230;27;20110;-67
2021/12/21 03:08:57;;;;;;;19.17;5.43;;;1.60;99.90;;;;;;5139846;27;20050;-67
2021/12/21 03:11:47;;;;;;;15.65;4.18;;;1.50;99.90;;;;;;5133398;27;20107;-67
2021/12/21 03:14:11;;;;;;;11.63;3.78;;;1.50;99.90;;;;;;5139658;27;20059;-66
2021/12/21 03:16:38;;;;;;;10.90;5.53;;;1.50;99.90;;;;;;5130202;27;20494;-67
2021/12/21 03:19:09;;;;;;;8.02;4.50;;;1.50;99.90;;;;;;5130754;27;20043;-67
2021/12/21 03:21:36;;;;;;;11.10;4.40;;;1.50;99.90;;;;;;5130084;27;20038;-67
2021/12/21 03:24:02;;;;;;;10.98;4.55;;;1.50;99.90;;;;;;5120714;27;20043;-67
2021/12/21 03:26:28;;;;;;;13.40;5.35;;;1.50;99.90;;;;;;5130850;27;20505;-67
2021/12/21 03:28:55;;;;;;;11.27;4.05;;;1.50;99.90;;;;;;5115015;27;20055;-67
2021/12/21 03:31:20;;;;;;;10.60;4.13;;;1.50;99.90;;;;;;5130729;27;20058;-67
2021/12/21 03:33:47;;;;;;;13.10;5.65;;;1.50;99.90;;;;;;5129502;27;20038;-67
2021/12/21 03:36:13;;;;;;;12.88;4.93;;;1.50;99.90;;;;;;5129433;27;20379;-67
2021/12/21 03:38:43;;;;;;;9.80;5.03;;;1.50;99.90;;;;;;5123822;27;20047;-67
2021/12/21 03:41:13;;;;;;;10.50;4.95;;;1.50;99.90;;;;;;5144091;27;20387;-67
2021/12/21 03:43:39;;;;;;;13.05;4.53;;;1.40;99.90;;;;;;5110858;27;20500;-67
2021/12/21 03:46:10;;;;;;;10.68;4.35;;;1.40;99.90;;;;;;5145293;27;20047;-67
2021/12/21 03:48:40;;;;;;;7.38;4.60;;;1.40;99.90;;;;;;5133774;27;20077;-67
2021/12/21 03:51:06;;;;;;;11.35;5.47;;;1.40;99.90;;;;;;5122432;27;20050;-67
2021/12/21 03:53:32;;;;;;;9.23;4.40;;;1.40;99.90;;;;;;5135642;27;20402;-66
2021/12/21 03:56:32;;;;;;;11.70;4.57;;;1.40;99.90;;;;;;5110383;27;20158;-67
2021/12/21 03:58:58;;;;;;;13.18;5.13;;;1.40;99.90;;;;;;5150153;27;20094;-67
2021/12/21 04:01:23;;;;;;;12.77;5.20;;;1.30;99.90;;;;;;5108252;27;20654;-67
2021/12/21 04:03:49;;;;;;;12.73;4.28;;;1.20;99.90;;;;;;5111990;27;20506;-67
2021/12/21 04:06:15;;;;;;;6.25;4.22;;;1.20;99.90;;;;;;5129275;27;20072;-66
2021/12/21 04:08:40;;;;;;;6.80;4.10;;;1.20;99.90;;;;;;5133957;27;20393;-67
2021/12/21 04:11:06;;;;;;;9.25;5.07;;;1.30;99.90;;;;;;5134692;27;20054;-67
2021/12/21 04:13:32;;;;;;;14.68;5.18;;;1.30;99.90;;;;;;5129042;27;20043;-67
2021/12/21 04:16:00;;;;;;;13.05;5.53;;;1.30;99.90;;;;;;5121063;27;20043;-67
2021/12/21 04:18:26;;;;;;;10.35;5.15;;;1.30;99.90;;;;;;5140448;27;20067;-67
2021/12/21 04:20:51;;;;;;;12.57;4.85;;;1.20;99.90;;;;;;5125099;27;20047;-67
2021/12/21 04:23:18;;;;;;;15.57;5.72;;;1.20;99.90;;;;;;5140094;27;20047;-67
2021/12/21 04:25:43;;;;;;;13.65;5.13;;;1.20;99.90;;;;;;5133273;27;20043;-66
2021/12/21 04:28:09;;;;;;;15.80;5.43;;;1.20;99.90;;;;;;5120529;27;20088;-67
2021/12/21 04:30:35;;;;;;;8.88;4.25;;;1.20;99.90;;;;;;5110665;27;20035;-67
2021/12/21 04:33:01;;;;;;;11.82;5.70;;;1.20;99.90;;;;;;5110426;27;20047;-67
2021/12/21 04:35:26;;;;;;;8.57;4.80;;;1.20;99.90;;;;;;5142231;27;20051;-68
2021/12/21 04:37:56;;;;;;;10.98;4.72;;;1.10;99.90;;;;;;5130117;27;20046;-69
2021/12/21 04:40:26;;;;;;;10.50;4.88;;;1.10;99.90;;;;;;5128572;27;20096;-69
2021/12/21 04:42:52;;;;;;;15.70;6.07;;;1.10;99.90;;;;;;5134524;27;20038;-69
2021/12/21 04:45:18;;;;;;;11.77;5.28;;;1.10;99.90;;;;;;5140198;27;20091;-69
2021/12/21 04:47:43;;;;;;;11.15;4.97;;;1.10;99.90;;;;;;5109821;27;20047;-68
2021/12/21 04:50:10;;;;;;;11.77;5.22;;;1.10;99.90;;;;;;5128785;27;20043;-68
2021/12/21 04:52:35;;;;;;;10.70;4.32;;;1.10;99.90;;;;;;5143489;27;20502;-68
2021/12/21 04:55:01;;;;;;;14.10;6.32;;;1.10;99.90;;;;;;5113878;27;20116;-68
2021/12/21 04:57:27;;;;;;;10.50;5.00;;;1.10;99.90;;;;;;5120482;27;20164;-68
2021/12/21 04:59:52;;;;;;;15.48;6.03;;;1.10;99.90;;;;;;5143970;27;20380;-68
2021/12/21 05:02:18;;;;;;;10.18;5.57;;;1.10;99.90;;;;;;5114669;27;20397;-68
2021/12/21 05:04:43;;;;;;;16.38;5.82;;;1.10;99.90;;;;;;5139994;27;20046;-68
2021/12/21 05:07:09;;;;;;;10.55;5.85;;;1.10;99.90;;;;;;5124578;28;20063;-68
2021/12/21 05:09:44;;;;;;;9.48;5.75;;;1.00;99.90;;;;;;5127530;27;20065;-68
2021/12/21 05:12:11;;;;;;;14.77;5.43;;;1.00;99.90;;;;;;5117315;27;20103;-68
2021/12/21 05:14:37;;;;;;;15.93;6.65;;;1.00;99.90;;;;;;5109737;28;20486;-68
2021/12/21 05:17:03;;;;;;;15.48;6.55;;;1.00;99.90;;;;;;5103849;28;20074;-68
2021/12/21 05:19:28;;;;;;;13.15;6.95;;;1.00;99.90;;;;;;5124811;27;20032;-68
2021/12/21 05:21:54;;;;;;;15.48;7.10;;;1.00;99.90;;;;;;5128209;27;20143;-68
2021/12/21 05:24:20;;;;;;;10.57;5.57;;;1.00;99.90;;;;;;5129334;28;20035;-68
2021/12/21 05:26:46;;;;;;;14.45;6.28;;;1.00;99.90;;;;;;5123094;27;20117;-68
2021/12/21 05:29:12;;;;;;;13.00;7.40;;;1.00;99.90;;;;;;5135205;27;20082;-68
2021/12/21 05:31:37;;;;;;;12.95;5.88;;;0.90;99.90;;;;;;5130367;27;20050;-68
2021/12/21 05:34:03;;;;;;;11.80;6.50;;;0.90;99.90;;;;;;5133482;27;20047;-68
2021/12/21 05:36:29;;;;;;;13.38;6.22;;;0.90;99.90;;;;;;5108056;27;20045;-68
2021/12/21 05:39:00;;;;;;;16.90;7.07;;;0.90;99.90;;;;;;5110633;28;20047;-68
2021/12/21 05:41:45;;;;;;;23.50;7.10;;;0.90;99.90;;;;;;5110589;28;20071;-68
2021/12/21 05:44:10;;;;;;;15.68;6.65;;;0.90;99.90;;;;;;5141993;27;20054;-69
2021/12/21 05:46:36;;;;;;;15.77;6.07;;;0.90;99.90;;;;;;5113004;27;20051;-68
2021/12/21 05:49:02;;;;;;;14.63;6.78;;;0.90;99.90;;;;;;5134852;27;20031;-68
2021/12/21 05:51:27;;;;;;;11.80;6.22;;;0.80;99.90;;;;;;5096370;27;20099;-68
2021/12/21 05:53:53;;;;;;;14.00;7.38;;;0.90;99.90;;;;;;5132408;27;20043;-68
2021/12/21 05:56:19;;;;;;;10.32;4.90;;;0.80;99.90;;;;;;5132355;27;20486;-68
2021/12/21 05:58:44;;;;;;;15.00;6.35;;;0.90;99.90;;;;;;5106984;27;20077;-68
2021/12/21 06:01:10;;;;;;;11.98;6.15;;;0.80;99.90;;;;;;5133386;27;20024;-68
2021/12/21 06:03:35;;;;;;;12.85;6.05;;;0.70;99.90;;;;;;5114417;27;20050;-68
2021/12/21 06:06:01;;;;;;;16.98;7.43;;;0.70;99.90;;;;;;5128659;27;20126;-68
2021/12/21 06:08:27;;;;;;;12.77;6.70;;;0.80;99.90;;;;;;5118645;27;20051;-68
2021/12/21 06:10:55;;;;;;;12.98;6.60;;;0.80;99.90;;;;;;5131915;27;20043;-68
2021/12/21 06:26:59;;;;;;;17.08;8.43;;;0.80;99.90;;;;;;5123919;27;20051;-68
2021/12/21 06:29:25;;;;;;;20.20;7.30;;;0.80;99.90;;;;;;5140314;27;20649;-68
2021/12/21 06:31:51;;;;;;;16.90;8.15;;;0.80;99.90;;;;;;5130623;27;20047;-68
2021/12/21 06:34:17;;;;;;;34.22;10.77;;;0.80;99.90;;;;;;5130814;27;20058;-68
2021/12/21 06:36:42;;;;;;;15.80;8.98;;;0.70;99.90;;;;;;5113658;27;20053;-68
2021/12/21 06:39:09;;;;;;;14.00;7.43;;;0.70;99.90;;;;;;5112051;27;20045;-68
2021/12/21 06:41:36;;;;;;;13.32;7.22;;;0.70;99.90;;;;;;5115858;27;20235;-68
2021/12/21 06:44:04;;;;;;;19.45;9.13;;;0.70;99.90;;;;;;5104756;27;20061;-68
2021/12/21 06:51:57;;;;;;;13.15;7.80;;;0.80;99.90;;;;;;5123549;27;20047;-68
2021/12/21 06:54:23;;;;;;;11.38;7.13;;;0.80;99.90;;;;;;5118025;27;20045;-68
2021/12/21 06:56:49;;;;;;;16.88;8.15;;;0.70;99.90;;;;;;5141785;27;20027;-68
2021/12/21 06:59:14;;;;;;;11.82;6.88;;;0.80;99.90;;;;;;5112482;27;20126;-68
2021/12/21 07:01:40;;;;;;;15.80;8.70;;;0.80;99.90;;;;;;5108076;27;20609;-68
2021/12/21 07:04:07;;;;;;;17.35;7.18;;;0.80;99.90;;;;;;5129802;27;20055;-67
2021/12/21 07:06:35;;;;;;;14.50;7.88;;;0.70;99.90;;;;;;5126714;27;20091;-67
2021/12/21 07:09:27;;;;;;;17.60;8.23;;;0.80;99.90;;;;;;5111989;27;20070;-68
2021/12/21 07:12:07;;;;;;;13.57;7.03;;;0.80;99.90;;;;;;5125652;27;20073;-68
2021/12/21 07:20:02;;;;;;;15.23;8.32;;;0.70;99.90;;;;;;5140345;27;20062;-68
2021/12/21 07:22:27;;;;;;;14.52;8.50;;;0.80;99.90;;;;;;5111624;27;20039;-68
2021/12/21 07:24:53;;;;;;;15.48;7.50;;;0.80;99.90;;;;;;5116052;27;20078;-68
2021/12/21 07:27:18;;;;;;;16.33;8.43;;;0.80;99.90;;;;;;5133088;27;20054;-68
2021/12/21 07:29:44;;;;;;;14.55;8.80;;;0.80;99.90;;;;;;5151249;27;20039;-68
2021/12/21 07:32:09;;;;;;;18.88;8.40;;;0.80;99.90;;;;;;5112600;27;20501;-68
2021/12/21 07:34:35;;;;;;;12.35;8.30;;;0.80;99.90;;;;;;5135865;27;20076;-68
2021/12/21 07:37:02;;;;;;;15.98;8.50;;;0.80;99.90;;;;;;5150221;27;20116;-68
2021/12/21 07:39:28;;;;;;;17.63;8.93;;;0.70;99.90;;;;;;5150403;27;20126;-68
2021/12/21 07:41:53;;;;;;;12.63;7.45;;;0.80;99.90;;;;;;5151320;27;20125;-68
2021/12/21 07:44:19;;;;;;;26.83;9.40;;;0.80;99.90;;;;;;5145558;27;20035;-68
2021/12/21 07:46:44;;;;;;;17.13;9.82;;;0.80;99.90;;;;;;5151182;27;20046;-68
2021/12/21 07:49:10;;;;;;;18.00;9.88;;;0.70;99.90;;;;;;5143201;27;20095;-68
2021/12/21 07:51:36;;;;;;;16.25;9.82;;;0.70;99.90;;;;;;5129304;27;20058;-68
2021/12/21 07:54:02;;;;;;;17.83;9.88;;;0.70;99.90;;;;;;5126117;27;20738;-68
2021/12/21 07:56:27;;;;;;;19.17;10.32;;;0.70;99.90;;;;;;5119616;27;20221;-68
2021/12/21 07:58:53;;;;;;;19.98;10.93;;;0.70;99.90;;;;;;5145367;27;20038;-68
2021/12/21 08:01:19;;;;;;;23.00;10.98;;;0.70;99.90;;;;;;5107838;27;20041;-67
2021/12/21 08:03:45;;;;;;;16.17;10.00;;;0.70;99.90;;;;;;5150034;27;20046;-68
2021/12/21 08:06:14;;;;;;;14.93;9.93;;;0.70;99.90;;;;;;5122340;27;20074;-68
2021/12/21 08:08:44;;;;;;;19.30;9.73;;;0.70;99.90;;;;;;5134685;27;20043;-68
2021/12/21 08:11:13;;;;;;;16.30;9.35;;;0.70;99.90;;;;;;5147405;27;20445;-68
2021/12/21 08:13:42;;;;;;;22.35;11.40;;;0.70;99.90;;;;;;5131399;27;20035;-68
2021/12/21 08:16:07;;;;;;;14.50;8.10;;;0.70;99.90;;;;;;5103715;28;20051;-68
2021/12/21 08:18:33;;;;;;;18.80;9.52;;;0.70;99.90;;;;;;5146058;27;20718;-68
2021/12/21 08:21:00;;;;;;;15.75;9.65;;;0.70;99.90;;;;;;5111977;27;20047;-68
2021/12/21 08:23:26;;;;;;;12.68;8.55;;;0.70;99.90;;;;;;5138571;27;20039;-68
2021/12/21 08:25:54;;;;;;;18.70;10.13;;;0.70;99.90;;;;;;5127987;27;20041;-68
2021/12/21 08:28:20;;;;;;;15.65;9.32;;;0.80;99.90;;;;;;5130210;27;20503;-68
2021/12/21 08:30:46;;;;;;;15.90;10.13;;;0.80;99.90;;;;;;5127116;27;20042;-68
2021/12/21 08:33:12;;;;;;;15.52;9.57;;;0.80;99.90;;;;;;5131499;27;20082;-68
2021/12/21 08:35:39;;;;;;;17.75;9.82;;;0.70;99.90;;;;;;5126904;27;20486;-68
2021/12/21 08:38:07;;;;;;;16.58;9.50;;;0.80;99.90;;;;;;5113124;27;20051;-68
2021/12/21 08:40:38;;;;;;;15.77;9.55;;;0.80;99.90;;;;;;5126796;27;20042;-68
2021/12/21 08:43:06;;;;;;;15.60;9.52;;;0.80;99.90;;;;;;5130553;27;20501;-68
2021/12/21 08:45:34;;;;;;;17.83;9.63;;;0.80;99.90;;;;;;5116707;27;20074;-68
2021/12/21 08:48:00;;;;;;;16.38;9.82;;;0.80;99.90;;;;;;5131780;27;20093;-68
2021/12/21 08:50:26;;;;;;;16.35;9.35;;;0.80;99.90;;;;;;5148353;27;20081;-68
2021/12/21 08:52:52;;;;;;;17.23;10.40;;;0.80;99.90;;;;;;5149944;27;20041;-68
2021/12/21 08:55:18;;;;;;;16.33;9.55;;;0.80;99.90;;;;;;5149146;27;20043;-68
2021/12/21 08:57:44;;;;;;;16.77;11.13;;;0.90;99.90;;;;;;5130760;27;20485;-68
2021/12/21 09:00:11;;;;;;;14.43;10.50;;;0.80;99.90;;;;;;5130668;27;20042;-68
2021/12/21 09:02:37;;;;;;;23.33;12.40;;;0.80;99.90;;;;;;5150557;27;20042;-68
2021/12/21 09:05:12;;;;;;;17.75;9.77;;;0.80;99.90;;;;;;5148756;27;20038;-68
2021/12/21 09:07:39;;;;;;;20.90;10.15;;;0.90;99.90;;;;;;5110592;28;20058;-68
2021/12/21 09:10:07;;;;;;;17.65;9.55;;;1.00;99.90;;;;;;5121940;27;20038;-68
2021/12/21 09:12:33;;;;;;;17.08;10.15;;;1.10;99.90;;;;;;5132336;27;20043;-68
2021/12/21 09:14:59;;;;;;;20.60;10.38;;;1.10;99.90;;;;;;5134019;27;20051;-67
2021/12/21 09:17:24;;;;;;;20.60;10.30;;;1.20;99.90;;;;;;5126476;28;20043;-68
2021/12/21 09:19:50;;;;;;;17.52;11.18;;;1.30;99.90;;;;;;5121457;27;20039;-68
2021/12/21 09:22:16;;;;;;;16.98;10.70;;;1.30;99.90;;;;;;5132756;27;20047;-68
2021/12/21 09:24:42;;;;;;;19.50;10.48;;;1.40;99.90;;;;;;5124874;27;20051;-68
2021/12/21 09:27:08;;;;;;;15.82;9.90;;;1.40;99.90;;;;;;5142393;27;20035;-68
2021/12/21 09:29:33;;;;;;;17.75;9.88;;;1.40;99.90;;;;;;5132136;27;20051;-68
2021/12/21 09:31:59;;;;;;;12.55;9.52;;;1.40;99.90;;;;;;5114254;27;20059;-68
2021/12/21 09:34:24;;;;;;;15.70;9.55;;;1.50;99.90;;;;;;5118038;27;20045;-67
2021/12/21 09:36:52;;;;;;;24.33;10.77;;;1.50;99.90;;;;;;5152867;27;20597;-68
2021/12/21 09:39:18;;;;;;;15.63;10.30;;;1.50;99.90;;;;;;5118935;27;20450;-67
2021/12/21 09:41:45;;;;;;;20.00;10.68;;;1.50;99.90;;;;;;5133217;27;20035;-68
2021/12/21 09:44:11;;;;;;;26.85;11.10;;;1.60;99.90;;;;;;5135826;27;20129;-67
2021/12/21 09:46:37;;;;;;;19.00;10.15;;;1.50;99.90;;;;;;5133613;27;20212;-68
2021/12/21 09:49:03;;;;;;;17.02;9.40;;;1.50;99.90;;;;;;5122505;27;20114;-67
2021/12/21 09:51:28;;;;;;;16.95;10.05;;;1.60;99.90;;;;;;5112709;27;20123;-67
2021/12/21 09:53:56;;;;;;;23.13;9.50;;;1.60;99.90;;;;;;5131499;27;20486;-67
2021/12/21 09:56:22;;;;;;;19.35;10.52;;;1.70;99.90;;;;;;5119524;27;20466;-67
2021/12/21 09:58:48;;;;;;;22.15;10.48;;;1.70;99.90;;;;;;5144101;27;20054;-67
2021/12/21 10:01:16;;;;;;;22.05;10.15;;;1.70;99.90;;;;;;5131560;27;20594;-67
2021/12/21 10:03:42;;;;;;;21.73;10.88;;;1.80;99.90;;;;;;5126754;27;20044;-66
2021/12/21 10:06:10;;;;;;;21.08;9.93;;;1.80;99.90;;;;;;5130574;27;20050;-66
2021/12/21 10:08:37;;;;;;;21.65;10.13;;;1.80;99.90;;;;;;5133130;27;20087;-66
2021/12/21 10:11:04;;;;;;;20.80;8.50;;;1.90;99.90;;;;;;5130619;27;20039;-66
2021/12/21 10:13:33;;;;;;;19.70;9.40;;;2.00;99.90;;;;;;5106114;27;20486;-67
2021/12/21 10:16:02;;;;;;;22.63;10.15;;;2.00;99.90;;;;;;5127386;27;20058;-67
2021/12/21 10:18:34;;;;;;;20.33;8.95;;;2.00;99.90;;;;;;5110353;27;20078;-66
2021/12/21 10:21:05;;;;;;;15.05;8.35;;;2.10;99.90;;;;;;5128508;27;20043;-67
2021/12/21 10:23:33;;;;;;;15.75;9.18;;;2.10;99.90;;;;;;5109690;27;20130;-67
2021/12/21 10:25:58;;;;;;;15.13;8.73;;;2.10;99.90;;;;;;5112747;27;20059;-68
2021/12/21 10:28:44;;;;;;;24.38;9.25;;;2.20;99.90;;;;;;5127573;27;20066;-68
2021/12/21 10:31:21;;;;;;;16.75;9.95;;;2.20;99.90;;;;;;5110647;28;20070;-68
2021/12/21 10:33:47;;;;;;;18.48;10.00;;;2.20;99.90;;;;;;5101999;27;20492;-68
2021/12/21 10:36:14;;;;;;;21.83;10.68;;;2.20;99.90;;;;;;5134864;27;20123;-68
2021/12/21 10:38:52;;;;;;;23.65;10.65;;;2.30;99.90;;;;;;5112331;27;20371;-67
2021/12/21 10:41:27;;;;;;;15.70;10.00;;;2.30;99.90;;;;;;5122735;27;20501;-67
2021/12/21 10:44:11;;;;;;;25.00;10.02;;;2.30;99.90;;;;;;5127618;27;20055;-67
2021/12/21 10:46:40;;;;;;;22.23;10.18;;;2.40;99.90;;;;;;5129349;27;20071;-67
2021/12/21 10:49:15;;;;;;;18.88;10.82;;;2.40;99.90;;;;;;5130674;27;20048;-68
2021/12/21 10:52:07;;;;;;;17.52;9.93;;;2.40;99.90;;;;;;5131807;27;20078;-67
2021/12/21 10:54:41;;;;;;;19.63;10.18;;;2.50;99.90;;;;;;5130732;27;20043;-68
2021/12/21 10:57:10;;;;;;;18.25;10.73;;;2.50;99.90;;;;;;5102752;27;20047;-68
2021/12/21 10:59:38;;;;;;;25.38;10.13;;;2.60;99.90;;;;;;5144944;27;20042;-68
2021/12/21 11:02:10;;;;;;;14.88;10.30;;;2.60;99.90;;;;;;5139349;27;20051;-68
2021/12/21 11:04:42;;;;;;;20.60;10.50;;;2.70;99.90;;;;;;5151511;27;20050;-67
2021/12/21 11:07:37;;;;;;;20.65;10.88;;;2.80;99.90;;;;;;5137120;27;20178;-68
2021/12/21 11:10:12;;;;;;;21.08;10.00;;;2.80;99.90;;;;;;5145161;27;20078;-68
2021/12/21 11:12:54;;;;;;;23.77;10.30;;;2.90;99.90;;;;;;5142975;27;20055;-68
2021/12/21 11:15:22;;;;;;;21.58;10.18;;;2.90;99.90;;;;;;5133097;27;20039;-69
2021/12/21 11:17:48;;;;;;;19.30;10.07;;;2.90;99.90;;;;;;5152035;27;20051;-69
2021/12/21 11:20:16;;;;;;;19.05;10.70;;;2.90;99.90;;;;;;5110485;27;20035;-69
2021/12/21 11:22:44;;;;;;;23.65;11.45;;;3.00;99.90;;;;;;5144323;27;20085;-69
2021/12/21 11:25:11;;;;;;;19.08;9.98;;;3.10;99.90;;;;;;5151762;27;20027;-69
2021/12/21 11:27:39;;;;;;;17.70;10.25;;;3.10;99.90;;;;;;5108221;27;20043;-69
2021/12/21 11:30:08;;;;;;;21.45;11.43;;;3.10;99.90;;;;;;5106249;27;20442;-69
2021/12/21 11:32:39;;;;;;;22.75;11.65;;;3.10;99.90;;;;;;5130914;27;20474;-69
2021/12/21 11:37:43;;;;;;;18.08;10.70;;;3.20;99.90;;;;;;5111045;27;20121;-69
2021/12/21 11:40:12;;;;;;;24.88;10.98;;;3.30;99.90;;;;;;5111927;27;20043;-70
2021/12/21 11:42:51;;;;;;;15.02;9.95;;;3.50;99.90;;;;;;5129603;27;20084;-69
2021/12/21 11:45:23;;;;;;;18.23;10.75;;;3.60;99.90;;;;;;5128940;27;20047;-70
2021/12/21 11:48:08;;;;;;;17.25;9.55;;;3.80;99.90;;;;;;5132785;27;20394;-70
2021/12/21 11:50:36;;;;;;;20.17;10.23;;;3.90;99.90;;;;;;5112636;27;20043;-69
2021/12/21 11:53:04;;;;;;;18.83;8.77;;;4.10;99.90;;;;;;5111460;27;20047;-69
2021/12/21 11:55:32;;;;;;;17.90;9.52;;;4.30;99.90;;;;;;5126126;27;20473;-71
2021/12/21 11:58:00;;;;;;;24.45;9.98;;;4.40;99.90;;;;;;5102492;27;20379;-69
2021/12/21 12:00:30;;;;;;;15.40;8.35;;;4.70;99.90;;;;;;5108188;27;20043;-69
2021/12/21 12:03:09;;;;;;;13.52;8.65;;;4.70;99.90;;;;;;5127149;27;20189;-69
2021/12/21 12:05:35;;;;;;;14.10;8.13;;;5.00;99.90;;;;;;5122399;27;20100;-69
2021/12/21 12:08:09;;;;;;;18.80;8.60;;;5.20;99.90;;;;;;5092029;28;20051;-68
2021/12/21 12:10:37;;;;;;;;;;;5.40;99.90;;;;;;5132483;27;20088;-69
2021/12/21 12:13:10;;;;;;;19.02;9.43;;;5.50;99.90;;;;;;5114848;27;19968;-69
2021/12/21 12:15:52;;;;;;;15.55;8.50;;;5.80;99.90;;;;;;5127020;27;20174;-69
2021/12/21 12:18:20;;;;;;;17.13;7.43;;;5.90;99.90;;;;;;5129956;27;20058;-69
2021/12/21 12:20:46;;;;;;;13.73;7.20;;;6.10;99.90;;;;;;5124887;27;20534;-69
2021/12/21 12:23:12;;;;;;;12.85;7.47;;;6.20;99.90;;;;;;5142411;27;20082;-69
2021/12/21 12:25:49;;;;;;;14.23;6.80;;;6.20;99.90;;;;;;5130958;27;20035;-70
2021/12/21 12:28:34;;;;;;;19.42;7.63;;;6.20;99.90;;;;;;5120579;27;20054;-67
2021/12/21 12:31:01;;;;;;;12.60;6.60;;;6.20;99.90;;;;;;5121088;27;20039;-67
2021/12/21 12:33:39;;;;;;;18.90;6.75;;;6.10;99.90;;;;;;5131588;27;20042;-68
2021/12/21 12:36:05;;;;;;;11.73;5.72;;;6.10;99.90;;;;;;5125428;27;20039;-68
2021/12/21 12:38:41;;;;;;;17.30;7.03;;;6.20;99.90;;;;;;5125003;27;20431;-67
2021/12/21 12:41:06;;;;;;;14.07;6.72;;;6.30;99.90;;;;;;5126585;27;20047;-66
2021/12/21 12:43:39;;;;;;;13.23;6.55;;;6.30;99.90;;;;;;5128331;27;20042;-67
2021/12/21 12:46:08;;;;;;;17.95;6.15;;;6.40;99.90;;;;;;5125656;27;20051;-68
2021/12/21 12:48:48;;;;;;;12.82;5.72;;;6.60;99.90;;;;;;5120778;27;20038;-69
2021/12/21 12:51:29;;;;;;;10.52;5.50;;;6.80;99.90;;;;;;5117102;27;20050;-69
2021/12/21 12:53:55;;;;;;;11.30;5.47;;;6.80;99.90;;;;;;5130724;27;20486;-69
2021/12/21 12:56:20;;;;;;;10.57;5.20;;;6.80;99.90;;;;;;5150147;27;20115;-69
2021/12/21 12:58:50;;;;;;;12.70;6.03;;;7.00;99.90;;;;;;5145864;27;20057;-70
2021/12/21 13:01:22;;;;;;;13.10;6.93;;;6.90;99.90;;;;;;5110619;28;20070;-69
2021/12/21 13:03:50;;;;;;;9.18;5.30;;;7.20;99.90;;;;;;5129556;27;20493;-69
2021/12/21 13:06:20;;;;;;;14.18;6.38;;;7.20;99.90;;;;;;5109459;27;20051;-69
2021/12/21 13:08:46;;;;;;;11.95;5.18;;;7.50;99.90;;;;;;5117690;27;20074;-69
2021/12/21 13:11:16;;;;;;;13.63;5.80;;;7.60;99.90;;;;;;5149898;27;20085;-69
2021/12/21 13:13:45;;;;;;;8.75;4.55;;;7.90;99.90;;;;;;5128346;28;20057;-69
2021/12/21 13:16:13;;;;;;;10.32;5.00;;;8.10;99.90;;;;;;5129309;28;20039;-69
2021/12/21 13:18:47;;;;;;;10.20;4.63;;;8.30;99.90;;;;;;5122841;27;20471;-70
2021/12/21 13:21:25;;;;;;;11.70;5.38;;;8.30;99.90;;;;;;5146565;27;20046;-69
2021/12/21 13:24:06;;;;;;;5.90;3.47;;;8.40;99.90;;;;;;5123434;27;20406;-69
2021/12/21 13:26:36;;;;;;;11.57;4.43;;;8.30;99.90;;;;;;5134050;27;20526;-69
2021/12/21 13:29:04;;;;;;;12.57;4.05;;;8.60;99.90;;;;;;5148724;27;20039;-69
2021/12/21 13:31:30;;;;;;;7.45;3.78;;;8.70;99.90;;;;;;5148505;27;20138;-69
2021/12/21 13:33:58;;;;;;;17.10;3.95;;;8.50;99.90;;;;;;5142628;27;20138;-69
2021/12/21 13:36:41;;;;;;;12.80;4.40;;;8.50;99.90;;;;;;5131603;27;20051;-69
2021/12/21 13:39:26;;;;;;;11.00;4.93;;;8.20;99.90;;;;;;5136532;27;20440;-70
2021/12/21 13:41:52;;;;;;;8.88;3.78;;;8.10;99.90;;;;;;5123161;27;20051;-70
2021/12/21 13:44:28;;;;;;;11.48;4.15;;;7.80;99.90;;;;;;5131033;27;20043;-70
2021/12/21 13:46:56;;;;;;;13.15;4.32;;;7.60;99.90;;;;;;5113235;27;20043;-67